createdAt,value
2023-12-15T00:01:19.497Z,6.50
2023-12-15T00:07:21.937Z,6.20
2023-12-15T00:13:24.438Z,5.03
2023-12-15T00:19:26.981Z,4.70
2023-12-15T00:25:30.384Z,4.90
2023-12-15T00:31:32.815Z,3.93
2023-12-15T00:37:36.789Z,5.10
2023-12-15T00:43:39.804Z,4.57
2023-12-15T00:49:43.217Z,4.07
2023-12-15T00:55:45.717Z,4.97
2023-12-15T01:01:47.759Z,4.30
2023-12-15T01:07:51.671Z,4.87
2023-12-15T01:13:54.100Z,5.13
2023-12-15T01:19:56.574Z,4.93
2023-12-15T01:25:59.020Z,4.53
2023-12-15T01:32:01.506Z,4.57
2023-12-15T01:38:05.046Z,4.80
2023-12-15T01:44:07.467Z,4.97
2023-12-15T01:50:10.943Z,5.03
2023-12-15T01:56:13.770Z,4.87
2023-12-15T02:02:16.205Z,4.80
2023-12-15T02:08:18.379Z,5.83
2023-12-15T02:14:20.835Z,5.33
2023-12-15T02:20:23.327Z,5.10
2023-12-15T02:26:25.794Z,5.97
2023-12-15T02:32:28.320Z,5.87
2023-12-15T02:38:31.682Z,6.80
2023-12-15T02:44:35.120Z,5.30
2023-12-15T02:50:37.642Z,6.23
2023-12-15T02:56:40.060Z,5.23
2023-12-15T03:02:43.516Z,6.13
2023-12-15T03:08:45.973Z,5.57
2023-12-15T03:14:52.516Z,5.93
2023-12-15T03:20:54.962Z,6.10
2023-12-15T03:26:57.464Z,6.60
2023-12-15T03:32:59.973Z,6.83
2023-12-15T03:39:05.355Z,8.03
2023-12-15T03:45:08.865Z,7.60
2023-12-15T03:51:14.289Z,7.63
2023-12-15T03:57:16.811Z,8.00
2023-12-15T04:03:19.245Z,9.07
2023-12-15T04:09:21.730Z,8.07
2023-12-15T04:15:24.234Z,8.30
2023-12-15T04:21:26.709Z,7.60
2023-12-15T04:27:34.001Z,7.37
2023-12-15T04:33:36.814Z,7.87
2023-12-15T04:39:39.091Z,7.37
2023-12-15T04:45:41.539Z,7.67
2023-12-15T04:51:44.029Z,7.57
2023-12-15T04:57:48.994Z,7.03
2023-12-15T05:03:52.022Z,7.53
2023-12-15T05:09:54.043Z,6.83
2023-12-15T05:15:56.946Z,6.80
2023-12-15T05:22:00.413Z,7.63
2023-12-15T05:28:02.879Z,7.30
2023-12-15T05:34:05.437Z,8.17
2023-12-15T05:40:11.812Z,7.53
2023-12-15T05:46:16.249Z,7.30
2023-12-15T05:52:18.753Z,7.07
2023-12-15T05:58:21.249Z,6.57
2023-12-15T06:04:26.719Z,6.43
2023-12-15T06:10:30.214Z,8.43
2023-12-15T06:16:32.692Z,7.17
2023-12-15T06:22:35.138Z,8.90
2023-12-15T06:28:37.611Z,8.20
2023-12-15T06:34:44.093Z,9.33
2023-12-15T06:40:46.589Z,8.97
2023-12-15T06:46:49.040Z,9.20
2023-12-15T06:52:56.522Z,11.03
2023-12-15T06:58:59.025Z,10.57
2023-12-15T07:05:01.796Z,13.33
2023-12-15T07:11:04.108Z,13.37
2023-12-15T07:17:06.553Z,12.60
2023-12-15T07:23:11.440Z,12.97
2023-12-15T07:29:13.411Z,17.03
2023-12-15T07:35:21.079Z,12.87
2023-12-15T07:41:31.411Z,15.07
2023-12-15T07:47:33.979Z,14.03
2023-12-15T07:53:41.519Z,15.33
2023-12-15T07:59:43.820Z,15.83
2023-12-15T08:05:46.275Z,16.77
2023-12-15T08:11:48.796Z,15.50
2023-12-15T08:17:52.321Z,16.53
2023-12-15T08:23:54.567Z,16.50
2023-12-15T08:29:59.071Z,17.43
2023-12-15T08:36:01.489Z,15.47
2023-12-15T08:42:03.979Z,15.70
2023-12-15T08:48:06.641Z,16.23
2023-12-15T08:54:09.897Z,16.03
2023-12-15T09:00:13.372Z,14.20
2023-12-15T09:06:26.032Z,14.10
2023-12-15T09:12:31.387Z,15.33
2023-12-15T09:18:33.947Z,13.87
2023-12-15T09:24:37.298Z,14.20
2023-12-15T09:30:39.807Z,12.73
2023-12-15T09:36:42.220Z,11.20
2023-12-15T09:42:44.740Z,11.27
2023-12-15T09:48:48.237Z,11.10
2023-12-15T09:54:51.624Z,12.83
2023-12-15T10:00:54.103Z,9.00
2023-12-15T10:06:56.546Z,9.07
2023-12-15T10:12:59.012Z,8.83
2023-12-15T10:19:04.609Z,7.93
2023-12-15T10:25:27.036Z,8.70
2023-12-15T10:31:29.516Z,10.63
2023-12-15T10:37:34.991Z,11.30
2023-12-15T10:43:40.421Z,13.77
2023-12-15T10:49:50.193Z,13.53
2023-12-15T10:55:56.877Z,12.70
2023-12-15T11:02:02.234Z,13.50
2023-12-15T11:08:05.474Z,14.37
2023-12-15T11:14:13.840Z,12.97
2023-12-15T11:20:22.512Z,14.77
2023-12-15T11:26:33.958Z,14.03
2023-12-15T11:32:36.684Z,13.07
2023-12-15T11:38:40.852Z,13.10
2023-12-15T11:44:49.279Z,11.50
2023-12-15T11:50:51.720Z,11.40
2023-12-15T11:56:57.228Z,11.70
2023-12-15T12:03:02.693Z,11.40
2023-12-15T12:09:11.162Z,11.77
2023-12-15T12:15:13.631Z,12.00
2023-12-15T12:21:17.116Z,11.53
2023-12-15T12:27:19.552Z,11.80
2023-12-15T12:33:26.279Z,8.77
2023-12-15T12:39:29.506Z,8.83
2023-12-15T12:45:41.994Z,9.70
2023-12-15T12:51:44.485Z,8.97
2023-12-15T12:57:48.922Z,8.30
2023-12-15T13:03:51.523Z,7.90
2023-12-15T13:09:56.972Z,8.33
2023-12-15T13:16:05.303Z,9.20
2023-12-15T13:22:10.812Z,8.63
2023-12-15T13:28:14.539Z,10.13
2023-12-15T13:34:20.801Z,9.67
2023-12-15T13:40:24.239Z,9.30
2023-12-15T13:46:26.690Z,8.90
2023-12-15T13:52:29.162Z,8.93
2023-12-15T13:58:31.622Z,9.20
2023-12-15T14:04:34.104Z,9.93
2023-12-15T14:10:36.597Z,8.97
2023-12-15T14:16:44.381Z,7.83
2023-12-15T14:22:49.551Z,9.20
2023-12-15T14:28:52.001Z,9.20
2023-12-15T14:34:56.999Z,8.53
2023-12-15T14:41:04.291Z,8.43
2023-12-15T14:47:08.554Z,8.37
2023-12-15T14:53:11.962Z,9.30
2023-12-15T14:59:14.443Z,9.53
2023-12-15T15:05:17.919Z,8.87
2023-12-15T15:11:20.364Z,9.03
2023-12-15T15:17:27.208Z,8.17
2023-12-15T15:23:32.345Z,10.03
2023-12-15T15:29:34.826Z,10.27
2023-12-15T15:35:37.290Z,9.93
2023-12-15T15:41:39.734Z,9.23
2023-12-15T15:47:42.483Z,8.90
2023-12-15T15:53:45.620Z,8.77
2023-12-15T15:59:48.126Z,9.13
2023-12-15T16:05:50.683Z,9.13
2023-12-15T16:11:54.033Z,9.97
2023-12-15T16:18:02.150Z,8.60
2023-12-15T16:24:06.281Z,9.10
2023-12-15T16:30:09.584Z,8.37
2023-12-15T16:36:24.987Z,11.20
2023-12-15T16:42:27.432Z,8.53
2023-12-15T16:48:29.900Z,8.20
2023-12-15T16:54:39.918Z,8.70
2023-12-15T17:00:42.927Z,7.03
2023-12-15T17:06:48.326Z,8.77
2023-12-15T17:12:50.804Z,7.57
2023-12-15T17:18:53.363Z,10.70
2023-12-15T17:24:55.727Z,6.93
2023-12-15T17:30:58.211Z,5.70
2023-12-15T17:37:00.664Z,7.33
2023-12-15T17:43:03.120Z,6.90
2023-12-15T17:49:07.059Z,7.57
2023-12-15T17:55:14.133Z,6.40
2023-12-15T18:01:18.859Z,7.37
2023-12-15T18:07:23.044Z,7.33
2023-12-15T18:13:28.485Z,6.77
2023-12-15T18:19:33.989Z,6.57
2023-12-15T18:25:37.498Z,6.93
2023-12-15T18:31:42.958Z,6.07
2023-12-15T18:37:45.389Z,6.40
2023-12-15T18:43:47.846Z,4.93
2023-12-15T18:49:50.365Z,4.30
2023-12-15T18:55:52.796Z,4.87
2023-12-15T19:01:55.323Z,4.97
2023-12-15T19:07:57.727Z,5.30
2023-12-15T19:14:00.303Z,5.50
2023-12-15T19:20:02.655Z,4.53
2023-12-15T19:26:09.170Z,4.40
2023-12-15T19:32:12.658Z,3.97
2023-12-15T19:38:16.133Z,4.73
2023-12-15T19:44:18.583Z,4.93
2023-12-15T19:50:25.542Z,5.00
2023-12-15T19:56:30.513Z,4.93
2023-12-15T20:02:32.982Z,5.20
2023-12-15T20:08:36.468Z,5.73
2023-12-15T20:14:38.938Z,7.33
2023-12-15T20:20:43.653Z,6.83
2023-12-15T20:26:47.873Z,6.60
2023-12-15T20:32:50.456Z,6.20
2023-12-15T20:38:54.762Z,8.30
2023-12-15T20:44:57.223Z,8.53
2023-12-15T20:50:59.790Z,6.87
2023-12-15T20:57:02.132Z,5.33
2023-12-15T21:03:04.668Z,5.23
2023-12-15T21:09:08.031Z,5.50
2023-12-15T21:15:11.518Z,4.47
2023-12-15T21:21:15.007Z,4.50
2023-12-15T21:27:17.437Z,4.67
2023-12-15T21:33:20.070Z,4.23
2023-12-15T21:39:22.402Z,5.00
2023-12-15T21:45:27.868Z,4.30
2023-12-15T21:51:32.317Z,10.90
2023-12-15T21:57:34.932Z,9.67
2023-12-15T22:03:41.309Z,10.80
2023-12-15T22:09:43.728Z,5.60
2023-12-15T22:15:48.112Z,4.33
2023-12-15T22:21:52.684Z,5.17
2023-12-15T22:27:55.191Z,5.80
2023-12-15T22:33:57.704Z,7.37
2023-12-15T22:40:04.681Z,7.90
2023-12-15T22:46:09.605Z,5.37
2023-12-15T22:52:12.065Z,3.80
2023-12-15T22:58:14.536Z,3.20
2023-12-15T23:04:28.130Z,3.10
2023-12-15T23:10:31.596Z,4.30
2023-12-15T23:16:35.045Z,6.00
2023-12-15T23:22:47.547Z,5.67
2023-12-15T23:28:50.038Z,6.93
2023-12-15T23:34:52.433Z,7.07
2023-12-15T23:40:55.361Z,8.40
2023-12-15T23:47:00.343Z,7.13
2023-12-15T23:53:02.834Z,7.20
2023-12-15T23:59:05.269Z,7.60
